This is the latest recevied weather packets stored in our database for station/object SP9WPN-12. If no packets are shown the sender has not sent any weather packets the latest 10 day(s).
| Time | Temp. | Humidity | Pressure | Rain* | Wind** | Luminosity | Snow |
|---|---|---|---|---|---|---|---|
| 1777703116 | 17.22° C | 50% | 1026.3 hPa | - | - | - | - |
| 1777702518 | 16.67° C | 53% | 1026.4 hPa | - | - | - | - |
| 1777701920 | 16.11° C | 54% | 1026.5 hPa | - | - | - | - |
| 1777701321 | 15.56° C | 57% | 1026.6 hPa | - | - | - | - |
| 1777700724 | 14.44° C | 58% | 1026.6 hPa | - | - | - | - |
| 1777700125 | 13.89° C | 61% | 1026.7 hPa | - | - | - | - |
| 1777699529 | 13.33° C | 65% | 1026.9 hPa | - | - | - | - |
| 1777698930 | 12.22° C | 70% | 1027.1 hPa | - | - | - | - |
| 1777698332 | 11.11° C | 74% | 1027.2 hPa | - | - | - | - |
| 1777697734 | 10° C | 83% | 1027.3 hPa | - | - | - | - |
| 1777697137 | 7.78° C | 92% | 1027.5 hPa | - | - | - | - |
| 1777696539 | 5.56° C | 99% | 1027.7 hPa | - | - | - | - |
| 1777695941 | 5° C | 100% | 1027.7 hPa | - | - | - | - |
| 1777695340 | 4.44° C | 100% | 1027.7 hPa | - | - | - | - |
| 1777694741 | 4.44° C | 100% | 1027.6 hPa | - | - | - | - |
| 1777694143 | 3.89° C | 100% | 1027.6 hPa | - | - | - | - |
| 1777693545 | 3.89° C | 100% | 1027.6 hPa | - | - | - | - |
| 1777692947 | 3.89° C | 100% | 1027.6 hPa | - | - | - | - |
| 1777692349 | 3.89° C | 100% | 1027.6 hPa | - | - | - | - |
| 1777691751 | 3.33° C | 99% | 1027.7 hPa | - | - | - | - |
| 1777691153 | 3.89° C | 100% | 1027.6 hPa | - | - | - | - |
| 1777690554 | 3.89° C | 98% | 1027.6 hPa | - | - | - | - |
| 1777689956 | 3.89° C | 99% | 1027.6 hPa | - | - | - | - |
| 1777689358 | 4.44° C | 99% | 1027.5 hPa | - | - | - | - |
| 1777688760 | 4.44° C | 96% | 1027.4 hPa | - | - | - | - |
* Rain since midnight (hover to see other rain measurements)
** Current wind speed in m/s (hover to see current wind gust speed)